Time;durP1;ratioP1;P1;durP2;ratioP2;P2;SDS_P1;SDS_P2;PMS_P1;PMS_P2;Temp;Humidity;BMP_temperature;BMP_pressure;BME280_temperature;BME280_humidity;BME280_pressure;Samples;Min_cycle;Max_cycle;Signal;HPM_P1;HPM_P2
2021/03/17 00:00:45;;;;;;;0.10;0.10;;;;;;;;;;5050970;28;20217;-74
2021/03/17 00:03:12;;;;;;;0.10;0.10;;;;;;;;;;5051256;28;20192;-74
2021/03/17 00:05:40;;;;;;;0.00;0.00;;;;;;;;;;5051025;28;20204;-73
2021/03/17 00:08:07;;;;;;;0.10;0.10;;;;;;;;;;5033066;28;20201;-74
2021/03/17 00:10:34;;;;;;;0.10;0.10;;;;;;;;;;5050971;28;20184;-73
2021/03/17 00:13:01;;;;;;;0.10;0.10;;;;;;;;;;5050877;28;20166;-74
2021/03/17 00:15:29;;;;;;;0.25;0.25;;;;;;;;;;5050874;28;20208;-74
2021/03/17 00:17:55;;;;;;;0.13;0.13;;;;;;;;;;5033095;28;20665;-74
2021/03/17 00:20:22;;;;;;;0.10;0.10;;;;;;;;;;5032973;28;20180;-74
2021/03/17 00:22:49;;;;;;;0.10;0.10;;;;;;;;;;5050727;28;20165;-74
2021/03/17 00:25:16;;;;;;;0.52;0.50;;;;;;;;;;5050611;28;20682;-73
2021/03/17 00:27:42;;;;;;;0.10;0.10;;;;;;;;;;5050679;28;20204;-73
2021/03/17 00:30:09;;;;;;;0.10;0.10;;;;;;;;;;5050676;28;20166;-74
2021/03/17 00:32:36;;;;;;;0.50;0.50;;;;;;;;;;5050451;28;20165;-74
2021/03/17 00:35:03;;;;;;;0.20;0.20;;;;;;;;;;5050455;28;20265;-74
2021/03/17 00:37:29;;;;;;;0.10;0.10;;;;;;;;;;5032714;28;20177;-74
2021/03/17 00:39:55;;;;;;;0.10;0.10;;;;;;;;;;5032694;28;20241;-73
2021/03/17 00:42:21;;;;;;;0.10;0.10;;;;;;;;;;5050354;28;20161;-74
2021/03/17 00:44:47;;;;;;;0.10;0.10;;;;;;;;;;5032507;28;20204;-74
2021/03/17 00:47:13;;;;;;;0.10;0.10;;;;;;;;;;5049949;28;20280;-74
2021/03/17 00:49:40;;;;;;;0.10;0.10;;;;;;;;;;5032413;28;20180;-74
2021/03/17 00:52:06;;;;;;;0.10;0.10;;;;;;;;;;5050205;28;20157;-74
2021/03/17 00:54:32;;;;;;;0.10;0.10;;;;;;;;;;5032318;28;20201;-73
2021/03/17 00:56:58;;;;;;;2.55;1.10;;;;;;;;;;5049976;28;20161;-73
2021/03/17 00:59:24;;;;;;;0.10;0.10;;;;;;;;;;5032215;28;20241;-74
2021/03/17 01:01:51;;;;;;;0.10;0.10;;;;;;;;;;5049990;28;20220;-73
2021/03/17 01:04:17;;;;;;;0.10;0.10;;;;;;;;;;5049886;28;20196;-73
2021/03/17 01:06:43;;;;;;;0.10;0.10;;;;;;;;;;5032063;28;20185;-74
2021/03/17 01:09:09;;;;;;;0.30;0.30;;;;;;;;;;5032140;28;20203;-74
2021/03/17 01:11:35;;;;;;;0.98;0.57;;;;;;;;;;5032170;28;20646;-74
2021/03/17 01:14:02;;;;;;;0.10;0.10;;;;;;;;;;5049152;28;20189;-74
2021/03/17 01:16:28;;;;;;;0.10;0.10;;;;;;;;;;5049780;28;20161;-74
2021/03/17 01:18:54;;;;;;;0.10;0.10;;;;;;;;;;5049732;28;20165;-73
2021/03/17 01:21:20;;;;;;;0.10;0.10;;;;;;;;;;5049685;28;20165;-73
2021/03/17 01:23:47;;;;;;;0.17;0.17;;;;;;;;;;5049481;28;20208;-74
2021/03/17 01:26:13;;;;;;;0.00;0.00;;;;;;;;;;5049689;28;20165;-74
2021/03/17 01:28:39;;;;;;;0.10;0.10;;;;;;;;;;5049524;28;20261;-74
2021/03/17 01:31:06;;;;;;;0.10;0.10;;;;;;;;;;5031856;28;20216;-74
2021/03/17 01:33:32;;;;;;;0.10;0.10;;;;;;;;;;5061986;28;20196;-74
2021/03/17 01:35:59;;;;;;;0.17;0.17;;;;;;;;;;5089478;28;20152;-74
2021/03/17 01:38:25;;;;;;;0.20;0.20;;;;;;;;;;5089481;28;20232;-74
2021/03/17 01:40:52;;;;;;;0.10;0.10;;;;;;;;;;5089471;28;20160;-73
2021/03/17 01:43:18;;;;;;;0.10;0.10;;;;;;;;;;5089462;28;20199;-74
2021/03/17 01:45:45;;;;;;;0.10;0.10;;;;;;;;;;5089487;28;20160;-74
2021/03/17 01:48:11;;;;;;;0.10;0.10;;;;;;;;;;5089080;28;20226;-73
2021/03/17 01:50:43;;;;;;;0.10;0.10;;;;;;;;;;5089449;28;20163;-74
2021/03/17 01:53:14;;;;;;;0.10;0.10;;;;;;;;;;5089318;28;20684;-74
2021/03/17 01:55:40;;;;;;;0.10;0.10;;;;;;;;;;5071329;28;20210;-74
2021/03/17 01:58:07;;;;;;;0.45;0.45;;;;;;;;;;5071327;28;20203;-73
2021/03/17 02:00:34;;;;;;;0.10;0.10;;;;;;;;;;5089331;28;20167;-74
2021/03/17 02:03:00;;;;;;;0.10;0.10;;;;;;;;;;5089160;28;20156;-74
2021/03/17 02:05:37;;;;;;;0.10;0.10;;;;;;;;;;5089243;28;20172;-74
2021/03/17 02:08:05;;;;;;;0.10;0.10;;;;;;;;;;5071125;28;20202;-74
2021/03/17 02:10:31;;;;;;;0.10;0.10;;;;;;;;;;5089306;28;20247;-74
2021/03/17 02:13:06;;;;;;;0.10;0.10;;;;;;;;;;5089045;28;20160;-74
2021/03/17 02:15:51;;;;;;;0.10;0.10;;;;;;;;;;5089028;28;20678;-75
2021/03/17 02:18:33;;;;;;;0.10;0.10;;;;;;;;;;5071023;28;20168;-73
2021/03/17 02:20:59;;;;;;;0.10;0.10;;;;;;;;;;5089054;28;20164;-75
2021/03/17 02:23:28;;;;;;;0.10;0.10;;;;;;;;;;5088984;28;20207;-74
2021/03/17 02:26:00;;;;;;;0.10;0.10;;;;;;;;;;5092865;28;20171;-74
2021/03/17 02:28:39;;;;;;;0.10;0.10;;;;;;;;;;5074996;28;20210;-74
2021/03/17 02:31:19;;;;;;;0.10;0.10;;;;;;;;;;5074777;28;20171;-73
2021/03/17 02:34:08;;;;;;;0.10;0.10;;;;;;;;;;5092797;28;20199;-74
2021/03/17 02:36:38;;;;;;;0.38;0.38;;;;;;;;;;5079865;28;20267;-74
2021/03/17 02:39:07;;;;;;;0.10;0.10;;;;;;;;;;5092780;28;20183;-74
2021/03/17 02:41:33;;;;;;;0.10;0.10;;;;;;;;;;5092784;28;20190;-72
2021/03/17 02:44:02;;;;;;;0.10;0.10;;;;;;;;;;5092454;28;20222;-74
2021/03/17 02:46:29;;;;;;;0.10;0.10;;;;;;;;;;5092175;28;20218;-74
2021/03/17 02:48:59;;;;;;;0.10;0.10;;;;;;;;;;5092013;28;20213;-73
2021/03/17 02:51:37;;;;;;;0.10;0.10;;;;;;;;;;5092562;28;20172;-74
2021/03/17 02:54:06;;;;;;;0.20;0.20;;;;;;;;;;5092374;28;20191;-74
2021/03/17 02:56:35;;;;;;;0.63;0.63;;;;;;;;;;5092509;28;20214;-73
2021/03/17 02:59:02;;;;;;;0.10;0.10;;;;;;;;;;5074324;28;20172;-73
2021/03/17 03:01:29;;;;;;;0.10;0.10;;;;;;;;;;5092265;28;20156;-73
2021/03/17 03:03:55;;;;;;;0.10;0.10;;;;;;;;;;5092141;28;20196;-74
2021/03/17 03:06:21;;;;;;;0.10;0.10;;;;;;;;;;5092257;28;20224;-74
2021/03/17 03:08:48;;;;;;;0.57;0.57;;;;;;;;;;5092129;28;20196;-74
2021/03/17 03:11:16;;;;;;;0.10;0.10;;;;;;;;;;5092143;28;20156;-73
2021/03/17 03:13:43;;;;;;;0.40;0.40;;;;;;;;;;5091980;28;20195;-74
2021/03/17 03:16:10;;;;;;;0.17;0.17;;;;;;;;;;5092032;28;20171;-73
2021/03/17 03:18:37;;;;;;;0.13;0.13;;;;;;;;;;5091371;28;20168;-73
2021/03/17 03:21:06;;;;;;;0.10;0.10;;;;;;;;;;5091965;28;20160;-73
2021/03/17 03:23:33;;;;;;;0.20;0.20;;;;;;;;;;5091851;28;20196;-72
2021/03/17 03:25:59;;;;;;;0.10;0.10;;;;;;;;;;5073930;28;20231;-72
2021/03/17 03:28:26;;;;;;;0.10;0.10;;;;;;;;;;5091843;28;20191;-72
2021/03/17 03:30:53;;;;;;;0.10;0.10;;;;;;;;;;5091790;28;20153;-72
2021/03/17 03:33:21;;;;;;;0.10;0.10;;;;;;;;;;5091406;28;20192;-72
2021/03/17 03:35:47;;;;;;;0.10;0.10;;;;;;;;;;5073036;28;20176;-72
2021/03/17 03:38:13;;;;;;;0.10;0.10;;;;;;;;;;5091665;28;20604;-74
2021/03/17 03:40:40;;;;;;;0.10;0.10;;;;;;;;;;5091373;28;20171;-74
2021/03/17 03:43:07;;;;;;;0.10;0.10;;;;;;;;;;5091328;28;20199;-74
2021/03/17 03:45:34;;;;;;;0.47;0.30;;;;;;;;;;5073479;28;20582;-74
2021/03/17 03:48:02;;;;;;;0.20;0.20;;;;;;;;;;5091031;28;20227;-73
2021/03/17 03:50:29;;;;;;;0.10;0.10;;;;;;;;;;5073278;28;20176;-73
2021/03/17 03:53:07;;;;;;;0.10;0.10;;;;;;;;;;5091152;28;20164;-73
2021/03/17 03:55:42;;;;;;;0.10;0.10;;;;;;;;;;5091271;28;20239;-72
2021/03/17 03:58:09;;;;;;;0.13;0.13;;;;;;;;;;5091098;28;20167;-73
2021/03/17 04:00:36;;;;;;;0.10;0.10;;;;;;;;;;5091014;28;20168;-73
2021/03/17 04:03:03;;;;;;;0.20;0.20;;;;;;;;;;5073079;28;20176;-73
2021/03/17 04:05:39;;;;;;;0.03;0.03;;;;;;;;;;5072978;28;20179;-73
2021/03/17 04:08:12;;;;;;;0.10;0.10;;;;;;;;;;5072831;28;20206;-73
2021/03/17 04:10:39;;;;;;;0.10;0.10;;;;;;;;;;5090936;28;20216;-74
2021/03/17 04:13:07;;;;;;;0.20;0.20;;;;;;;;;;5072765;28;20239;-73
2021/03/17 04:15:34;;;;;;;0.05;0.05;;;;;;;;;;5090831;28;20228;-73
2021/03/17 04:18:12;;;;;;;0.10;0.10;;;;;;;;;;5090826;28;20187;-73
2021/03/17 04:20:42;;;;;;;5.28;0.85;;;;;;;;;;5090677;28;20168;-73
2021/03/17 04:23:08;;;;;;;0.40;0.40;;;;;;;;;;5072576;28;20234;-73
2021/03/17 04:25:36;;;;;;;0.10;0.10;;;;;;;;;;5090789;28;20160;-73
2021/03/17 04:28:03;;;;;;;0.10;0.10;;;;;;;;;;5072602;28;20323;-73
2021/03/17 04:30:29;;;;;;;0.10;0.10;;;;;;;;;;5090452;28;20189;-73
2021/03/17 04:32:56;;;;;;;0.10;0.10;;;;;;;;;;5090391;28;20160;-73
2021/03/17 04:35:23;;;;;;;0.10;0.10;;;;;;;;;;5090518;28;20195;-73
2021/03/17 04:37:50;;;;;;;0.10;0.10;;;;;;;;;;5090469;28;20168;-73
2021/03/17 04:40:18;;;;;;;0.10;0.10;;;;;;;;;;5072203;28;20633;-73
2021/03/17 04:42:45;;;;;;;0.00;0.00;;;;;;;;;;5090399;28;20731;-73
2021/03/17 04:45:12;;;;;;;0.15;0.15;;;;;;;;;;5072254;28;20199;-74
2021/03/17 04:47:39;;;;;;;0.20;0.20;;;;;;;;;;5089059;28;20295;-73
2021/03/17 04:50:07;;;;;;;0.10;0.10;;;;;;;;;;5090009;28;20190;-73
2021/03/17 04:52:38;;;;;;;0.75;0.75;;;;;;;;;;5089960;28;20216;-73
2021/03/17 04:55:05;;;;;;;0.30;0.30;;;;;;;;;;5089864;28;20192;-73
2021/03/17 04:57:34;;;;;;;0.10;0.10;;;;;;;;;;5089674;28;20225;-73
2021/03/17 05:00:00;;;;;;;0.17;0.17;;;;;;;;;;5089936;28;20164;-73
2021/03/17 05:02:30;;;;;;;0.20;0.20;;;;;;;;;;5089568;28;20210;-73
2021/03/17 05:04:57;;;;;;;0.10;0.10;;;;;;;;;;5089694;28;20259;-73
2021/03/17 05:07:24;;;;;;;0.10;0.10;;;;;;;;;;5089829;28;20191;-73
2021/03/17 05:09:52;;;;;;;0.50;0.50;;;;;;;;;;5089478;28;20157;-73
2021/03/17 05:12:18;;;;;;;0.10;0.10;;;;;;;;;;5089549;28;20167;-73
2021/03/17 05:14:46;;;;;;;0.10;0.10;;;;;;;;;;5089210;28;20188;-73
2021/03/17 05:17:13;;;;;;;0.10;0.10;;;;;;;;;;5089271;28;20166;-73
2021/03/17 05:19:41;;;;;;;2.90;2.70;;;;;;;;;;5089280;28;20202;-73
2021/03/17 05:22:09;;;;;;;0.20;0.20;;;;;;;;;;5089310;28;20186;-73
2021/03/17 05:24:36;;;;;;;0.30;0.30;;;;;;;;;;5089188;28;20207;-73
2021/03/17 05:27:06;;;;;;;0.65;0.57;;;;;;;;;;5089279;28;20202;-73
2021/03/17 05:29:32;;;;;;;0.20;0.20;;;;;;;;;;5071168;28;20198;-73
2021/03/17 05:32:00;;;;;;;0.13;0.13;;;;;;;;;;5089378;28;20164;-73
2021/03/17 05:34:26;;;;;;;0.10;0.10;;;;;;;;;;5089099;28;20202;-73
2021/03/17 05:36:53;;;;;;;1.00;1.00;;;;;;;;;;5089240;28;20216;-73
2021/03/17 05:39:19;;;;;;;1.13;0.93;;;;;;;;;;5088987;28;20164;-73
2021/03/17 05:41:47;;;;;;;3.92;2.40;;;;;;;;;;5071145;28;20164;-73
2021/03/17 05:44:14;;;;;;;0.17;0.17;;;;;;;;;;5070658;28;20289;-73
2021/03/17 05:46:42;;;;;;;0.10;0.10;;;;;;;;;;5088828;28;20234;-73
2021/03/17 05:49:08;;;;;;;0.10;0.10;;;;;;;;;;5089035;28;20265;-73
2021/03/17 05:51:34;;;;;;;0.20;0.20;;;;;;;;;;5070929;28;20186;-73
2021/03/17 05:54:01;;;;;;;0.10;0.10;;;;;;;;;;5088803;28;20227;-73
2021/03/17 05:56:27;;;;;;;0.13;0.13;;;;;;;;;;5071178;28;20191;-73
2021/03/17 05:58:55;;;;;;;0.20;0.20;;;;;;;;;;5070479;28;20254;-73
2021/03/17 06:01:22;;;;;;;0.10;0.10;;;;;;;;;;5070657;28;20194;-73
2021/03/17 06:03:48;;;;;;;0.10;0.10;;;;;;;;;;5088588;28;20191;-73
2021/03/17 06:06:16;;;;;;;0.20;0.20;;;;;;;;;;5089011;28;20167;-74
2021/03/17 06:08:46;;;;;;;0.10;0.10;;;;;;;;;;5088877;28;20233;-74
2021/03/17 06:11:13;;;;;;;2.15;1.05;;;;;;;;;;5070493;28;20171;-74
2021/03/17 06:13:40;;;;;;;0.10;0.10;;;;;;;;;;5070661;28;20202;-73
2021/03/17 06:16:09;;;;;;;0.10;0.10;;;;;;;;;;5070317;28;20249;-73
2021/03/17 06:18:43;;;;;;;10.73;2.38;;;;;;;;;;5069984;28;20240;-74
2021/03/17 06:21:10;;;;;;;0.10;0.10;;;;;;;;;;5088594;28;20185;-73
2021/03/17 06:23:37;;;;;;;0.10;0.10;;;;;;;;;;5088402;28;20200;-73
2021/03/17 06:26:04;;;;;;;1.58;1.55;;;;;;;;;;5088493;28;20160;-73
2021/03/17 06:28:30;;;;;;;0.38;0.38;;;;;;;;;;5088627;28;20196;-73
2021/03/17 06:30:57;;;;;;;1.55;1.45;;;;;;;;;;5088698;28;20161;-73
2021/03/17 06:33:23;;;;;;;0.55;0.55;;;;;;;;;;5088089;28;20200;-73
2021/03/17 06:36:07;;;;;;;0.10;0.10;;;;;;;;;;5047151;28;20183;-74
2021/03/17 06:38:34;;;;;;;0.10;0.10;;;;;;;;;;5068247;28;20172;-74
2021/03/17 06:41:00;;;;;;;0.10;0.10;;;;;;;;;;5068259;28;20299;-74
2021/03/17 06:43:43;;;;;;;0.10;0.10;;;;;;;;;;5068281;28;20188;-73
2021/03/17 06:46:10;;;;;;;0.10;0.10;;;;;;;;;;5068180;28;20168;-73
2021/03/17 06:48:39;;;;;;;0.10;0.10;;;;;;;;;;5045516;28;20209;-74
2021/03/17 06:51:06;;;;;;;0.50;0.50;;;;;;;;;;5030822;28;20193;-75
2021/03/17 06:53:42;;;;;;;0.10;0.10;;;;;;;;;;5030407;28;20199;-74
2021/03/17 06:56:15;;;;;;;0.55;0.55;;;;;;;;;;5030380;28;20165;-74
2021/03/17 06:58:45;;;;;;;0.15;0.15;;;;;;;;;;5048310;28;20177;-74
2021/03/17 07:01:24;;;;;;;0.32;0.32;;;;;;;;;;5048074;28;20162;-75
2021/03/17 07:03:54;;;;;;;0.90;0.90;;;;;;;;;;5033937;28;20208;-74
2021/03/17 07:06:20;;;;;;;0.25;0.25;;;;;;;;;;5052486;28;20185;-75
2021/03/17 07:08:46;;;;;;;0.20;0.20;;;;;;;;;;5028123;28;20201;-74
2021/03/17 07:11:12;;;;;;;0.32;0.32;;;;;;;;;;5048759;28;20158;-74
2021/03/17 07:13:39;;;;;;;0.10;0.10;;;;;;;;;;5051772;28;20162;-74
2021/03/17 07:16:05;;;;;;;0.10;0.10;;;;;;;;;;5033627;28;20245;-74
2021/03/17 07:18:34;;;;;;;0.10;0.10;;;;;;;;;;5051648;28;20166;-74
2021/03/17 07:21:02;;;;;;;0.10;0.10;;;;;;;;;;5033972;28;20268;-75
2021/03/17 07:23:33;;;;;;;0.45;0.22;;;;;;;;;;5051699;28;20169;-75
2021/03/17 07:26:17;;;;;;;0.08;0.08;;;;;;;;;;5050303;28;20221;-74
2021/03/17 07:29:03;;;;;;;0.10;0.10;;;;;;;;;;5033361;28;20216;-75
2021/03/17 07:31:31;;;;;;;0.10;0.10;;;;;;;;;;5051431;28;20153;-75
2021/03/17 07:34:11;;;;;;;0.10;0.10;;;;;;;;;;5051489;28;20252;-74
2021/03/17 07:36:48;;;;;;;0.03;0.03;;;;;;;;;;5050026;28;20240;-75
2021/03/17 07:39:34;;;;;;;0.10;0.10;;;;;;;;;;5033380;28;20172;-75
2021/03/17 07:42:02;;;;;;;0.10;0.10;;;;;;;;;;5051267;28;20153;-75
2021/03/17 07:44:28;;;;;;;0.10;0.10;;;;;;;;;;5050894;28;20195;-75
2021/03/17 07:46:56;;;;;;;0.10;0.10;;;;;;;;;;5024250;28;20283;-75
2021/03/17 07:49:23;;;;;;;0.25;0.25;;;;;;;;;;5031510;28;20174;-74
2021/03/17 07:51:57;;;;;;;0.05;0.05;;;;;;;;;;5030997;28;20189;-74
2021/03/17 07:54:27;;;;;;;0.05;0.05;;;;;;;;;;5013464;28;20166;-75
2021/03/17 07:56:54;;;;;;;0.10;0.10;;;;;;;;;;5034959;28;20274;-74
2021/03/17 07:59:22;;;;;;;0.10;0.10;;;;;;;;;;5022343;28;20173;-74
2021/03/17 08:01:49;;;;;;;0.08;0.08;;;;;;;;;;5032999;28;20201;-74
2021/03/17 08:04:16;;;;;;;0.00;0.00;;;;;;;;;;5033127;28;20169;-74
2021/03/17 08:06:43;;;;;;;1.13;1.13;;;;;;;;;;5050729;28;20224;-74
2021/03/17 08:09:10;;;;;;;0.03;0.03;;;;;;;;;;5050322;28;20189;-75
2021/03/17 08:11:37;;;;;;;0.10;0.10;;;;;;;;;;5050749;28;20162;-75
2021/03/17 08:14:03;;;;;;;0.10;0.10;;;;;;;;;;5042766;28;20189;-74
2021/03/17 08:16:32;;;;;;;0.10;0.10;;;;;;;;;;5013265;28;20275;-74
2021/03/17 08:18:59;;;;;;;0.10;0.10;;;;;;;;;;5030775;28;20186;-74
2021/03/17 08:21:43;;;;;;;0.20;0.20;;;;;;;;;;5030586;28;20169;-74
2021/03/17 08:24:09;;;;;;;0.10;0.10;;;;;;;;;;5012979;28;20185;-74
2021/03/17 08:26:35;;;;;;;0.10;0.10;;;;;;;;;;5030662;28;20205;-74
2021/03/17 08:29:01;;;;;;;0.10;0.10;;;;;;;;;;5014458;28;20228;-74
2021/03/17 08:31:54;;;;;;;0.10;0.10;;;;;;;;;;5029782;28;20174;-74
2021/03/17 08:34:20;;;;;;;0.10;0.10;;;;;;;;;;5028175;28;20181;-74
2021/03/17 08:36:50;;;;;;;0.10;0.10;;;;;;;;;;5047991;28;20211;-73
2021/03/17 08:39:32;;;;;;;0.10;0.10;;;;;;;;;;5023579;28;20185;-73
2021/03/17 08:42:02;;;;;;;0.00;0.00;;;;;;;;;;5021745;28;20189;-73
2021/03/17 08:44:32;;;;;;;0.08;0.08;;;;;;;;;;5030195;28;20162;-73
2021/03/17 08:47:19;;;;;;;1.30;1.27;;;;;;;;;;5028105;28;20288;-73
2021/03/17 08:49:46;;;;;;;0.43;0.43;;;;;;;;;;5049902;28;20219;-73
2021/03/17 08:52:31;;;;;;;0.10;0.10;;;;;;;;;;5032092;28;20181;-73
2021/03/17 08:54:59;;;;;;;0.00;0.00;;;;;;;;;;5049895;28;20228;-73
2021/03/17 08:57:45;;;;;;;0.45;0.45;;;;;;;;;;5049780;28;20200;-73
2021/03/17 09:00:11;;;;;;;0.10;0.10;;;;;;;;;;5049467;28;20177;-73
2021/03/17 09:02:37;;;;;;;0.00;0.00;;;;;;;;;;5049632;28;20165;-73
2021/03/17 09:05:17;;;;;;;0.10;0.10;;;;;;;;;;5043968;28;20166;-73
2021/03/17 09:07:59;;;;;;;0.75;0.68;;;;;;;;;;5029724;28;20271;-73
2021/03/17 09:10:38;;;;;;;21.92;0.80;;;;;;;;;;5029590;28;20162;-73
2021/03/17 09:13:04;;;;;;;0.10;0.10;;;;;;;;;;5029927;28;20157;-73
2021/03/17 09:15:41;;;;;;;0.10;0.10;;;;;;;;;;5012076;28;20162;-74
2021/03/17 09:18:08;;;;;;;0.32;0.32;;;;;;;;;;5029409;28;20240;-74
2021/03/17 09:20:45;;;;;;;0.08;0.08;;;;;;;;;;5029615;28;20216;-74
2021/03/17 09:23:13;;;;;;;0.10;0.10;;;;;;;;;;5011710;28;20173;-73
2021/03/17 09:25:41;;;;;;;0.03;0.03;;;;;;;;;;5029676;28;20166;-74
2021/03/17 09:28:13;;;;;;;0.40;0.40;;;;;;;;;;5011757;28;20213;-73
2021/03/17 09:30:41;;;;;;;0.20;0.20;;;;;;;;;;5051168;28;20222;-74
2021/03/17 09:33:09;;;;;;;0.05;0.05;;;;;;;;;;5051219;28;20238;-73
2021/03/17 09:35:36;;;;;;;0.10;0.10;;;;;;;;;;5029069;28;20162;-74
2021/03/17 09:38:13;;;;;;;0.30;0.30;;;;;;;;;;5011804;28;20204;-74
2021/03/17 09:40:44;;;;;;;1.02;0.98;;;;;;;;;;5029416;28;20641;-74
2021/03/17 09:43:28;;;;;;;0.10;0.10;;;;;;;;;;5011593;28;20192;-75
2021/03/17 09:45:55;;;;;;;0.10;0.10;;;;;;;;;;5039071;28;20172;-74
2021/03/17 09:48:21;;;;;;;0.00;0.00;;;;;;;;;;5050787;28;20212;-73
2021/03/17 09:50:47;;;;;;;0.40;0.40;;;;;;;;;;5068932;28;20161;-73
2021/03/17 09:53:17;;;;;;;0.10;0.10;;;;;;;;;;5069075;28;20157;-74
2021/03/17 09:55:44;;;;;;;1.40;1.30;;;;;;;;;;5068572;28;20176;-69
2021/03/17 09:58:10;;;;;;;0.10;0.10;;;;;;;;;;5068417;28;20203;-69
2021/03/17 10:00:37;;;;;;;0.17;0.17;;;;;;;;;;5068572;28;20210;-69
2021/03/17 10:03:05;;;;;;;0.10;0.10;;;;;;;;;;5068620;28;20195;-68
2021/03/17 10:05:31;;;;;;;0.20;0.20;;;;;;;;;;5078554;28;20171;-69
2021/03/17 10:07:58;;;;;;;0.00;0.00;;;;;;;;;;5088689;28;20210;-69
2021/03/17 10:10:25;;;;;;;0.10;0.10;;;;;;;;;;5070638;28;20193;-68
2021/03/17 10:12:52;;;;;;;0.05;0.05;;;;;;;;;;5070766;28;20696;-70
2021/03/17 10:15:20;;;;;;;0.98;0.45;;;;;;;;;;5088253;28;20157;-69
2021/03/17 10:17:47;;;;;;;0.10;0.10;;;;;;;;;;5088664;28;20192;-69
2021/03/17 10:20:18;;;;;;;0.10;0.10;;;;;;;;;;5088990;28;20206;-70
2021/03/17 10:22:44;;;;;;;0.30;0.30;;;;;;;;;;5070708;28;20233;-70
2021/03/17 10:25:12;;;;;;;0.00;0.00;;;;;;;;;;5088869;28;20184;-70
2021/03/17 10:27:41;;;;;;;0.08;0.08;;;;;;;;;;5070537;28;20231;-70
2021/03/17 10:30:14;;;;;;;0.00;0.00;;;;;;;;;;5088670;28;20156;-70
2021/03/17 10:32:42;;;;;;;0.20;0.20;;;;;;;;;;5048480;28;20161;-69
2021/03/17 10:35:10;;;;;;;0.17;0.17;;;;;;;;;;5048591;28;20260;-69
2021/03/17 10:37:36;;;;;;;0.10;0.10;;;;;;;;;;5048432;28;20204;-69
2021/03/17 10:40:08;;;;;;;0.28;0.28;;;;;;;;;;5048329;28;20176;-70
2021/03/17 10:42:56;;;;;;;3.75;0.63;;;;;;;;;;5053354;28;20238;-68
2021/03/17 10:45:30;;;;;;;0.28;0.28;;;;;;;;;;5063094;28;20176;-68
2021/03/17 10:47:56;;;;;;;0.10;0.10;;;;;;;;;;5033226;28;20252;-68
2021/03/17 10:50:30;;;;;;;1.02;0.35;;;;;;;;;;5014619;28;20181;-68
2021/03/17 10:52:57;;;;;;;0.63;0.63;;;;;;;;;;5032065;28;20165;-68
2021/03/17 10:55:23;;;;;;;0.10;0.10;;;;;;;;;;5032200;28;20670;-69
2021/03/17 10:57:50;;;;;;;0.10;0.10;;;;;;;;;;5014363;28;20205;-69
2021/03/17 11:00:24;;;;;;;0.00;0.00;;;;;;;;;;5024762;28;20707;-69
2021/03/17 11:02:50;;;;;;;0.00;0.00;;;;;;;;;;5034086;28;20173;-69
2021/03/17 11:05:24;;;;;;;0.00;0.00;;;;;;;;;;5059557;28;20545;-69
2021/03/17 11:07:59;;;;;;;0.00;0.00;;;;;;;;;;5071411;28;20208;-68
2021/03/17 11:10:35;;;;;;;0.10;0.10;;;;;;;;;;5071659;28;20149;-68
2021/03/17 11:13:10;;;;;;;0.10;0.10;;;;;;;;;;5065291;28;20232;-68
2021/03/17 11:15:42;;;;;;;0.00;0.00;;;;;;;;;;5051553;28;20161;-68
2021/03/17 11:18:09;;;;;;;0.00;0.00;;;;;;;;;;5051475;28;20193;-68
2021/03/17 11:20:41;;;;;;;0.00;0.00;;;;;;;;;;5033711;28;20180;-69
2021/03/17 11:23:15;;;;;;;0.00;0.00;;;;;;;;;;5051477;28;20161;-69
2021/03/17 11:25:41;;;;;;;0.00;0.00;;;;;;;;;;5051569;28;20158;-69
2021/03/17 11:28:11;;;;;;;0.73;0.10;;;;;;;;;;5033395;28;20213;-70
2021/03/17 11:30:41;;;;;;;0.73;0.57;;;;;;;;;;5053786;28;20200;-69
2021/03/17 11:33:12;;;;;;;0.10;0.10;;;;;;;;;;5053118;28;20161;-69
2021/03/17 11:35:38;;;;;;;0.08;0.08;;;;;;;;;;5071233;28;20161;-68
2021/03/17 11:38:04;;;;;;;0.10;0.10;;;;;;;;;;5053005;28;20595;-69
2021/03/17 11:40:30;;;;;;;0.30;0.30;;;;;;;;;;5070106;28;20188;-68
2021/03/17 11:43:04;;;;;;;0.00;0.00;;;;;;;;;;5069369;28;20164;-67
2021/03/17 11:45:30;;;;;;;0.00;0.00;;;;;;;;;;5051315;28;20161;-68
2021/03/17 11:47:56;;;;;;;0.00;0.00;;;;;;;;;;5086272;28;20227;-68
2021/03/17 11:50:22;;;;;;;0.25;0.25;;;;;;;;;;5071106;28;20168;-68
2021/03/17 11:52:48;;;;;;;0.20;0.20;;;;;;;;;;5089054;28;20597;-68
2021/03/17 11:55:17;;;;;;;0.10;0.10;;;;;;;;;;5089388;28;20168;-68
2021/03/17 11:57:44;;;;;;;0.00;0.00;;;;;;;;;;5090341;28;20175;-69
2021/03/17 12:00:11;;;;;;;0.10;0.10;;;;;;;;;;5090808;28;20163;-67
2021/03/17 12:02:37;;;;;;;0.05;0.05;;;;;;;;;;5072329;28;20680;-68
2021/03/17 12:05:03;;;;;;;0.40;0.40;;;;;;;;;;5072834;28;20239;-67
2021/03/17 12:07:30;;;;;;;0.00;0.00;;;;;;;;;;5090499;28;20192;-67
2021/03/17 12:09:56;;;;;;;0.00;0.00;;;;;;;;;;5090827;28;20188;-68
2021/03/17 12:12:23;;;;;;;0.00;0.00;;;;;;;;;;5072732;28;20554;-69
2021/03/17 12:14:49;;;;;;;0.10;0.10;;;;;;;;;;5090552;28;20163;-68
2021/03/17 12:17:15;;;;;;;0.00;0.00;;;;;;;;;;5090533;28;20149;-68
2021/03/17 12:19:41;;;;;;;0.10;0.10;;;;;;;;;;5090329;28;20190;-68
2021/03/17 12:22:08;;;;;;;0.10;0.10;;;;;;;;;;5090217;28;20188;-68
2021/03/17 12:24:34;;;;;;;0.00;0.00;;;;;;;;;;5090172;28;20160;-68
2021/03/17 12:27:00;;;;;;;0.10;0.10;;;;;;;;;;5090230;28;20160;-69
2021/03/17 12:29:26;;;;;;;0.00;0.00;;;;;;;;;;5072066;28;20175;-68
2021/03/17 12:31:52;;;;;;;0.10;0.10;;;;;;;;;;5089885;28;20200;-68
2021/03/17 12:34:19;;;;;;;0.25;0.25;;;;;;;;;;5090343;28;20183;-68
2021/03/17 12:36:45;;;;;;;0.10;0.10;;;;;;;;;;5090097;28;20156;-68
2021/03/17 12:39:11;;;;;;;0.00;0.00;;;;;;;;;;5090080;28;20164;-68
2021/03/17 12:41:37;;;;;;;0.40;0.40;;;;;;;;;;5089716;28;20188;-68
2021/03/17 12:44:04;;;;;;;0.15;0.15;;;;;;;;;;5089742;28;20163;-68
2021/03/17 12:46:30;;;;;;;0.20;0.20;;;;;;;;;;5089626;28;20587;-68
2021/03/17 12:48:56;;;;;;;0.10;0.10;;;;;;;;;;5071694;28;20689;-68
2021/03/17 12:51:22;;;;;;;0.40;0.40;;;;;;;;;;5089850;28;20188;-68
2021/03/17 12:53:48;;;;;;;0.10;0.10;;;;;;;;;;5089079;28;20169;-68
2021/03/17 12:56:15;;;;;;;0.20;0.20;;;;;;;;;;5071679;28;20164;-68
2021/03/17 12:58:41;;;;;;;0.30;0.30;;;;;;;;;;5089751;28;20781;-67
2021/03/17 13:01:07;;;;;;;0.00;0.00;;;;;;;;;;5089345;28;20218;-68
2021/03/17 13:03:34;;;;;;;0.40;0.40;;;;;;;;;;5071753;28;20167;-68
2021/03/17 13:06:00;;;;;;;0.00;0.00;;;;;;;;;;5089467;28;20183;-67
2021/03/17 13:08:26;;;;;;;0.28;0.28;;;;;;;;;;5088965;28;20203;-67
2021/03/17 13:10:52;;;;;;;0.70;0.38;;;;;;;;;;5089101;28;20194;-68
2021/03/17 13:13:18;;;;;;;0.10;0.10;;;;;;;;;;5089441;28;20216;-68
2021/03/17 13:15:45;;;;;;;0.10;0.10;;;;;;;;;;5071314;28;20163;-67
2021/03/17 13:18:11;;;;;;;0.10;0.10;;;;;;;;;;5089418;28;20216;-68
2021/03/17 13:20:37;;;;;;;0.17;0.17;;;;;;;;;;5089426;28;20192;-68
2021/03/17 13:23:03;;;;;;;0.10;0.10;;;;;;;;;;5089380;28;20164;-67
2021/03/17 13:25:30;;;;;;;0.10;0.10;;;;;;;;;;5089133;28;20570;-67
2021/03/17 13:27:57;;;;;;;0.00;0.00;;;;;;;;;;5089043;28;20192;-67
2021/03/17 13:30:24;;;;;;;0.10;0.10;;;;;;;;;;5071010;28;20203;-67
2021/03/17 13:32:50;;;;;;;0.10;0.10;;;;;;;;;;5088969;28;20159;-67
2021/03/17 13:35:16;;;;;;;0.10;0.10;;;;;;;;;;5071212;28;20501;-67
2021/03/17 13:37:43;;;;;;;0.10;0.10;;;;;;;;;;5070862;28;20187;-66
2021/03/17 13:40:10;;;;;;;0.40;0.40;;;;;;;;;;5089139;28;20164;-67
2021/03/17 13:42:38;;;;;;;0.00;0.00;;;;;;;;;;5071121;28;20177;-67
2021/03/17 13:45:05;;;;;;;0.00;0.00;;;;;;;;;;5071001;28;20202;-67
2021/03/17 13:47:31;;;;;;;0.10;0.10;;;;;;;;;;5088646;28;20219;-67
2021/03/17 13:49:58;;;;;;;0.10;0.10;;;;;;;;;;5089003;28;20231;-67
2021/03/17 13:52:24;;;;;;;0.10;0.10;;;;;;;;;;5070833;28;20196;-67
2021/03/17 13:54:50;;;;;;;0.00;0.00;;;;;;;;;;5088743;28;20215;-67
2021/03/17 13:57:16;;;;;;;0.10;0.10;;;;;;;;;;5088857;28;20172;-67
2021/03/17 13:59:42;;;;;;;0.10;0.10;;;;;;;;;;5088571;28;20174;-67
2021/03/17 14:02:09;;;;;;;0.00;0.00;;;;;;;;;;5088633;28;20195;-68
2021/03/17 14:04:35;;;;;;;0.10;0.10;;;;;;;;;;5075738;28;20179;-67
2021/03/17 14:07:02;;;;;;;0.20;0.20;;;;;;;;;;5068491;28;20219;-68
2021/03/17 14:09:28;;;;;;;0.13;0.13;;;;;;;;;;5050952;28;20232;-67
2021/03/17 14:11:54;;;;;;;1.83;1.23;;;;;;;;;;5051018;28;20220;-68
2021/03/17 14:14:21;;;;;;;0.10;0.10;;;;;;;;;;5051081;28;20172;-69
2021/03/17 14:16:48;;;;;;;0.10;0.10;;;;;;;;;;5050944;28;20176;-67
2021/03/17 14:19:14;;;;;;;0.10;0.10;;;;;;;;;;5051210;28;20222;-68
2021/03/17 14:21:40;;;;;;;0.10;0.10;;;;;;;;;;5053891;28;20218;-68
2021/03/17 14:24:07;;;;;;;0.10;0.10;;;;;;;;;;5054578;28;20172;-68
2021/03/17 14:26:34;;;;;;;0.10;0.10;;;;;;;;;;5072745;28;20216;-68
2021/03/17 14:29:00;;;;;;;0.10;0.10;;;;;;;;;;5072301;28;20196;-67
2021/03/17 14:31:26;;;;;;;0.20;0.20;;;;;;;;;;5082119;28;20259;-67
2021/03/17 14:33:53;;;;;;;0.98;0.85;;;;;;;;;;5092600;28;20184;-68
2021/03/17 14:36:20;;;;;;;0.00;0.00;;;;;;;;;;5074708;28;20593;-68
2021/03/17 14:38:46;;;;;;;0.10;0.10;;;;;;;;;;5092245;28;20168;-67
2021/03/17 14:41:12;;;;;;;0.10;0.10;;;;;;;;;;5092331;28;20560;-67
2021/03/17 14:43:39;;;;;;;0.10;0.10;;;;;;;;;;5092163;28;20160;-68
2021/03/17 14:46:05;;;;;;;0.00;0.00;;;;;;;;;;5092032;28;20160;-68
2021/03/17 14:48:31;;;;;;;0.10;0.10;;;;;;;;;;5074132;28;20283;-68
2021/03/17 14:50:58;;;;;;;0.10;0.10;;;;;;;;;;5092056;28;20211;-68